createdAt,value
2023-01-01T00:00:40.299Z,16.08
2023-01-01T00:01:40.438Z,16.00
2023-01-01T00:02:40.215Z,16.00
2023-01-01T00:03:40.188Z,16.02
2023-01-01T00:04:40.141Z,16.05
2023-01-01T00:05:40.150Z,16.00
2023-01-01T00:06:40.132Z,15.99
2023-01-01T00:07:40.183Z,16.06
2023-01-01T00:08:40.129Z,16.10
2023-01-01T00:09:40.088Z,16.08
2023-01-01T00:10:40.098Z,16.06
2023-01-01T00:11:40.083Z,16.09
2023-01-01T00:12:40.075Z,16.05
2023-01-01T00:13:40.060Z,16.06
2023-01-01T00:14:40.038Z,16.10
2023-01-01T00:15:40.033Z,16.16
2023-01-01T00:16:40.170Z,16.18
2023-01-01T00:17:40.052Z,16.21
2023-01-01T00:18:40.075Z,16.16
2023-01-01T00:19:40.044Z,16.18
2023-01-01T00:20:39.976Z,16.17
2023-01-01T00:21:40.118Z,16.14
2023-01-01T00:22:56.252Z,16.14
2023-01-01T00:23:39.983Z,16.14
2023-01-01T00:24:39.970Z,16.18
2023-01-01T00:25:39.930Z,16.17
2023-01-01T00:26:39.914Z,16.13
2023-01-01T00:27:39.890Z,16.10
2023-01-01T00:28:39.912Z,16.13
2023-01-01T00:29:40.317Z,16.09
2023-01-01T00:30:39.878Z,16.09
2023-01-01T00:31:39.895Z,16.06
2023-01-01T00:32:39.860Z,16.05
2023-01-01T00:33:39.850Z,16.02
2023-01-01T00:34:39.838Z,16.05
2023-01-01T00:35:40.734Z,16.02
2023-01-01T00:36:39.873Z,16.08
2023-01-01T00:37:46.382Z,16.09
2023-01-01T00:38:39.767Z,16.09
2023-01-01T00:39:39.801Z,16.08
2023-01-01T00:40:39.763Z,16.09
2023-01-01T00:41:39.761Z,16.06
2023-01-01T00:42:39.767Z,16.06
2023-01-01T00:43:39.767Z,15.96
2023-01-01T00:44:39.738Z,15.99
2023-01-01T00:45:39.899Z,16.03
2023-01-01T00:46:39.700Z,16.09
2023-01-01T00:47:39.708Z,16.09
2023-01-01T00:48:39.687Z,16.08
2023-01-01T00:49:39.691Z,16.06
2023-01-01T00:50:39.669Z,16.06
2023-01-01T00:51:39.657Z,16.02
2023-01-01T00:52:39.646Z,16.06
2023-01-01T00:53:39.624Z,16.13
2023-01-01T00:54:39.627Z,16.10
2023-01-01T00:55:39.607Z,16.09
2023-01-01T00:56:39.591Z,16.14
2023-01-01T00:57:39.585Z,16.13
2023-01-01T00:58:39.562Z,16.10
2023-01-01T00:59:39.565Z,16.06
2023-01-01T01:00:39.572Z,16.02
2023-01-01T01:01:39.639Z,16.03
2023-01-01T01:02:39.663Z,16.02
2023-01-01T01:03:39.538Z,16.00
2023-01-01T01:04:39.511Z,16.00
2023-01-01T01:05:39.524Z,15.96
2023-01-01T01:06:39.485Z,15.96
2023-01-01T01:07:39.477Z,15.91
2023-01-01T01:08:39.468Z,15.91
2023-01-01T01:09:39.478Z,15.91
2023-01-01T01:10:39.477Z,15.95
2023-01-01T01:11:39.427Z,15.98
2023-01-01T01:12:39.410Z,15.95
2023-01-01T01:13:39.423Z,15.90
2023-01-01T01:14:39.392Z,15.91
2023-01-01T01:15:39.387Z,15.95
2023-01-01T01:16:39.464Z,15.88
2023-01-01T01:17:39.378Z,15.83
2023-01-01T01:18:39.372Z,15.84
2023-01-01T01:19:39.363Z,15.98
2023-01-01T01:20:39.324Z,16.03
2023-01-01T01:21:39.322Z,16.06
2023-01-01T01:22:39.298Z,16.08
2023-01-01T01:23:39.323Z,16.06
2023-01-01T01:24:39.282Z,16.02
2023-01-01T01:25:39.295Z,15.96
2023-01-01T01:26:39.282Z,15.91
2023-01-01T01:27:39.287Z,15.87
2023-01-01T01:28:43.804Z,15.87
2023-01-01T01:29:39.236Z,15.90
2023-01-01T01:30:39.249Z,15.88
2023-01-01T01:31:39.221Z,15.85
2023-01-01T01:32:39.191Z,15.85
2023-01-01T01:33:39.220Z,15.83
2023-01-01T01:34:39.179Z,15.78
2023-01-01T01:35:39.178Z,15.78
2023-01-01T01:36:39.160Z,15.78
2023-01-01T01:37:39.167Z,15.77
2023-01-01T01:38:39.122Z,15.83
2023-01-01T01:39:39.131Z,15.87
2023-01-01T01:40:39.118Z,15.87
2023-01-01T01:41:39.119Z,15.88
2023-01-01T01:42:39.106Z,15.93
2023-01-01T01:43:39.132Z,15.91
2023-01-01T01:44:39.070Z,15.99
2023-01-01T01:45:39.072Z,16.03
2023-01-01T01:46:39.030Z,15.98
2023-01-01T01:47:39.066Z,15.96
2023-01-01T01:48:39.012Z,15.93
2023-01-01T01:49:39.037Z,15.88
2023-01-01T01:50:39.015Z,15.85
2023-01-01T01:51:39.026Z,15.84
2023-01-01T01:52:38.978Z,15.87
2023-01-01T01:53:38.978Z,15.84
2023-01-01T01:54:38.984Z,15.85
2023-01-01T01:55:39.010Z,15.84
2023-01-01T01:56:38.944Z,15.76
2023-01-01T01:57:38.977Z,15.70
2023-01-01T01:58:38.941Z,15.62
2023-01-01T01:59:38.956Z,15.58
2023-01-01T02:00:38.920Z,15.50
2023-01-01T02:01:38.997Z,15.47
2023-01-01T02:02:39.049Z,15.52
2023-01-01T02:03:38.873Z,15.54
2023-01-01T02:04:38.851Z,15.51
2023-01-01T02:05:38.863Z,15.59
2023-01-01T02:06:38.841Z,15.58
2023-01-01T02:07:38.824Z,15.51
2023-01-01T02:08:38.821Z,15.56
2023-01-01T02:09:38.812Z,15.68
2023-01-01T02:10:38.819Z,15.70
2023-01-01T02:11:38.786Z,15.66
2023-01-01T02:12:38.775Z,15.60
2023-01-01T02:13:38.772Z,15.60
2023-01-01T02:14:38.743Z,15.63
2023-01-01T02:15:38.842Z,15.68
2023-01-01T02:16:38.730Z,15.72
2023-01-01T02:17:39.628Z,15.72
2023-01-01T02:18:38.728Z,15.65
2023-01-01T02:19:38.717Z,15.62
2023-01-01T02:20:38.694Z,15.60
2023-01-01T02:21:38.695Z,15.56
2023-01-01T02:22:38.664Z,15.56
2023-01-01T02:23:38.656Z,15.59
2023-01-01T02:24:38.642Z,15.59
2023-01-01T02:25:38.631Z,15.58
2023-01-01T02:26:38.966Z,15.58
2023-01-01T02:27:38.614Z,15.54
2023-01-01T02:28:38.602Z,15.54
2023-01-01T02:29:38.599Z,15.56
2023-01-01T02:30:38.603Z,15.62
2023-01-01T02:31:38.672Z,15.63
2023-01-01T02:32:38.574Z,15.65
2023-01-01T02:33:38.570Z,15.66
2023-01-01T02:34:38.534Z,15.65
2023-01-01T02:35:38.587Z,15.58
2023-01-01T02:36:38.539Z,15.58
2023-01-01T02:37:38.506Z,15.54
2023-01-01T02:38:38.478Z,15.58
2023-01-01T02:39:38.481Z,15.56
2023-01-01T02:40:38.465Z,15.59
2023-01-01T02:41:38.489Z,15.60
2023-01-01T02:42:38.442Z,15.60
2023-01-01T02:43:38.448Z,15.59
2023-01-01T02:44:38.424Z,15.59
2023-01-01T02:45:38.503Z,15.58
2023-01-01T02:46:38.396Z,15.59
2023-01-01T02:47:38.399Z,15.60
2023-01-01T02:48:38.375Z,15.63
2023-01-01T02:49:38.426Z,15.62
2023-01-01T02:50:38.468Z,15.65
2023-01-01T02:51:38.360Z,15.65
2023-01-01T02:52:38.353Z,15.65
2023-01-01T02:53:38.341Z,15.63
2023-01-01T02:54:38.359Z,15.56
2023-01-01T02:55:38.314Z,15.52
2023-01-01T02:56:38.300Z,15.52
2023-01-01T02:57:38.293Z,15.50
2023-01-01T02:58:38.271Z,15.50
2023-01-01T02:59:38.275Z,15.51
2023-01-01T03:00:38.258Z,15.51
2023-01-01T03:01:38.399Z,15.48
2023-01-01T03:02:38.316Z,15.47
2023-01-01T03:03:38.263Z,15.43
2023-01-01T03:04:38.233Z,15.40
2023-01-01T03:05:38.194Z,15.43
2023-01-01T03:06:38.207Z,15.40
2023-01-01T03:07:38.174Z,15.40
2023-01-01T03:08:38.174Z,15.36
2023-01-01T03:09:38.169Z,15.35
2023-01-01T03:10:38.134Z,15.33
2023-01-01T03:11:38.148Z,15.29
2023-01-01T03:12:38.116Z,15.30
2023-01-01T03:13:38.112Z,15.29
2023-01-01T03:14:38.128Z,15.29
2023-01-01T03:15:38.112Z,15.30
2023-01-01T03:16:38.080Z,15.29
2023-01-01T03:17:38.071Z,15.25
2023-01-01T03:18:38.044Z,15.23
2023-01-01T03:19:38.093Z,15.22
2023-01-01T03:20:38.049Z,15.20
2023-01-01T03:21:38.041Z,15.15
2023-01-01T03:23:13.174Z,15.12
2023-01-01T03:24:14.155Z,15.11
2023-01-01T03:25:14.146Z,15.11
2023-01-01T03:26:14.169Z,15.11
2023-01-01T03:27:14.132Z,15.14
2023-01-01T03:28:14.125Z,15.14
2023-01-01T03:29:14.104Z,15.12
2023-01-01T03:30:14.103Z,15.08
2023-01-01T03:31:14.143Z,15.05
2023-01-01T03:32:14.096Z,15.07
2023-01-01T03:33:14.056Z,15.03
2023-01-01T03:34:14.064Z,15.04
2023-01-01T03:35:14.047Z,15.03
2023-01-01T03:36:14.051Z,15.01
2023-01-01T03:37:14.024Z,15.01
2023-01-01T03:38:14.036Z,15.04
2023-01-01T03:39:14.002Z,15.07
2023-01-01T03:40:13.998Z,15.07
2023-01-01T03:41:13.989Z,15.11
2023-01-01T03:42:13.968Z,15.14
2023-01-01T03:43:13.971Z,15.12
2023-01-01T03:44:13.945Z,15.08
2023-01-01T03:45:13.933Z,15.05
2023-01-01T03:46:13.971Z,15.04
2023-01-01T03:47:13.952Z,15.01
2023-01-01T03:48:13.916Z,14.99
2023-01-01T03:49:13.873Z,14.97
2023-01-01T03:50:13.889Z,14.97
2023-01-01T03:51:13.868Z,14.99
2023-01-01T03:52:13.867Z,15.03
2023-01-01T03:53:13.871Z,15.01
2023-01-01T03:54:13.833Z,15.07
2023-01-01T03:55:13.836Z,15.05
2023-01-01T03:56:13.868Z,15.11
2023-01-01T03:57:13.821Z,15.11
2023-01-01T03:58:13.811Z,15.11
2023-01-01T03:59:13.777Z,15.10
2023-01-01T04:00:13.768Z,15.08
2023-01-01T04:01:13.806Z,15.05
2023-01-01T04:02:13.780Z,15.10
2023-01-01T04:03:13.899Z,15.07
2023-01-01T04:04:13.733Z,15.03
2023-01-01T04:05:13.744Z,15.01
2023-01-01T04:06:13.737Z,14.97
2023-01-01T04:07:15.714Z,14.95
2023-01-01T04:08:13.697Z,14.92
2023-01-01T04:09:13.707Z,14.90
2023-01-01T04:10:13.670Z,14.92
2023-01-01T04:11:13.648Z,14.92
2023-01-01T04:12:13.649Z,14.96
2023-01-01T04:13:13.637Z,14.95
2023-01-01T04:14:13.636Z,14.93
2023-01-01T04:15:13.642Z,14.95
2023-01-01T04:16:13.664Z,14.96
2023-01-01T04:17:13.631Z,14.97
2023-01-01T04:18:13.589Z,14.93
2023-01-01T04:19:13.572Z,14.96
2023-01-01T04:20:13.568Z,14.99
2023-01-01T04:21:13.561Z,14.97
2023-01-01T04:22:13.538Z,14.95
2023-01-01T04:23:13.556Z,14.92
2023-01-01T04:24:13.533Z,14.85
2023-01-01T04:25:13.531Z,14.78
2023-01-01T04:26:13.510Z,14.77
2023-01-01T04:27:13.492Z,14.79
2023-01-01T04:28:13.479Z,14.78
2023-01-01T04:29:13.450Z,14.77
2023-01-01T04:30:13.519Z,14.79
2023-01-01T04:31:13.446Z,14.87
2023-01-01T04:32:13.415Z,14.83
2023-01-01T04:33:13.420Z,14.78
2023-01-01T04:34:13.438Z,14.82
2023-01-01T04:35:13.429Z,14.87
2023-01-01T04:36:13.389Z,14.87
2023-01-01T04:37:13.888Z,14.85
2023-01-01T04:38:13.371Z,14.83
2023-01-01T04:39:13.390Z,14.87
2023-01-01T04:40:13.348Z,14.92
2023-01-01T04:41:13.359Z,14.89
2023-01-01T04:42:13.359Z,14.87
2023-01-01T04:43:13.315Z,14.92
2023-01-01T04:44:13.314Z,14.87
2023-01-01T04:45:13.313Z,14.83
2023-01-01T04:46:13.326Z,14.85
2023-01-01T04:47:13.268Z,14.89
2023-01-01T04:48:13.268Z,14.90
2023-01-01T04:49:13.255Z,14.86
2023-01-01T04:50:13.278Z,14.83
2023-01-01T04:51:13.217Z,14.78
2023-01-01T04:52:13.223Z,14.82
2023-01-01T04:53:13.199Z,14.82
2023-01-01T04:54:13.230Z,14.78
2023-01-01T04:55:13.192Z,14.77
2023-01-01T04:56:13.213Z,14.77
2023-01-01T04:57:13.155Z,14.79
2023-01-01T04:58:13.163Z,14.82
2023-01-01T04:59:13.142Z,14.79
2023-01-01T05:00:13.173Z,14.77
2023-01-01T05:01:13.261Z,14.74
2023-01-01T05:02:13.279Z,14.74
2023-01-01T05:03:13.098Z,14.83
2023-01-01T05:04:13.095Z,14.85
2023-01-01T05:05:13.077Z,14.85
2023-01-01T05:06:13.080Z,14.83
2023-01-01T05:07:13.070Z,14.77
2023-01-01T05:08:13.047Z,14.73
2023-01-01T05:09:13.076Z,14.73
2023-01-01T05:10:13.041Z,14.73
2023-01-01T05:11:13.014Z,14.70
2023-01-01T05:12:13.026Z,14.64
2023-01-01T05:13:12.988Z,14.67
2023-01-01T05:14:12.990Z,14.66
2023-01-01T05:15:12.962Z,14.67
2023-01-01T05:16:12.997Z,14.69
2023-01-01T05:17:12.968Z,14.71
2023-01-01T05:18:12.955Z,14.73
2023-01-01T05:19:12.925Z,14.71
2023-01-01T05:20:12.942Z,14.64
2023-01-01T05:21:12.900Z,14.61
2023-01-01T05:22:12.919Z,14.64
2023-01-01T05:23:12.879Z,14.66
2023-01-01T05:24:12.895Z,14.67
2023-01-01T05:25:12.842Z,14.69
2023-01-01T05:26:12.883Z,14.77
2023-01-01T05:27:12.874Z,14.70
2023-01-01T05:28:12.857Z,14.69
2023-01-01T05:29:16.584Z,14.66
2023-01-01T05:30:12.811Z,14.63
2023-01-01T05:31:12.897Z,14.59
2023-01-01T05:32:44.576Z,14.59
2023-01-01T05:33:45.599Z,14.53
2023-01-01T05:34:45.575Z,14.55
2023-01-01T05:35:45.537Z,14.58
2023-01-01T05:36:45.543Z,14.58
2023-01-01T05:37:45.553Z,14.56
2023-01-01T05:38:45.552Z,14.55
2023-01-01T05:39:45.621Z,14.53
2023-01-01T05:40:45.508Z,14.52
2023-01-01T05:41:45.476Z,14.53
2023-01-01T05:42:45.487Z,14.53
2023-01-01T05:43:45.480Z,14.55
2023-01-01T05:44:45.480Z,14.51
2023-01-01T05:45:45.436Z,14.45
2023-01-01T05:46:45.443Z,14.46
2023-01-01T05:47:45.420Z,14.41
2023-01-01T05:48:45.437Z,14.40
2023-01-01T05:49:45.420Z,14.38
2023-01-01T05:50:45.393Z,14.38
2023-01-01T05:51:45.382Z,14.37
2023-01-01T05:52:45.373Z,14.38
2023-01-01T05:53:45.389Z,14.36
2023-01-01T05:54:45.364Z,14.40
2023-01-01T05:55:45.394Z,14.40
2023-01-01T05:56:52.955Z,14.38
2023-01-01T05:57:45.361Z,14.37
2023-01-01T05:58:45.327Z,14.37
2023-01-01T05:59:45.365Z,14.33
2023-01-01T06:00:45.392Z,14.30
2023-01-01T06:01:46.257Z,14.30
2023-01-01T06:02:45.358Z,14.27
2023-01-01T06:03:45.295Z,14.22
2023-01-01T06:04:45.524Z,14.16
2023-01-01T06:05:45.270Z,14.12
2023-01-01T06:06:45.231Z,14.12
2023-01-01T06:07:48.634Z,14.16
2023-01-01T06:08:45.216Z,14.12
2023-01-01T06:09:45.554Z,14.08
2023-01-01T06:10:45.230Z,14.04
2023-01-01T06:11:45.190Z,14.03
2023-01-01T06:12:45.241Z,13.97
2023-01-01T06:13:45.175Z,13.96
2023-01-01T06:14:45.152Z,13.96
2023-01-01T06:15:45.145Z,13.96
2023-01-01T06:16:45.183Z,13.98
2023-01-01T06:17:45.115Z,13.98
2023-01-01T06:18:45.120Z,14.01
2023-01-01T06:19:45.146Z,14.05
2023-01-01T06:20:45.106Z,14.03
2023-01-01T06:21:45.130Z,14.03
2023-01-01T06:22:45.072Z,14.04
2023-01-01T06:23:45.072Z,14.04
2023-01-01T06:24:45.055Z,14.05
2023-01-01T06:25:45.056Z,14.05
2023-01-01T06:26:45.048Z,14.03
2023-01-01T06:27:45.056Z,14.08
2023-01-01T06:28:45.022Z,14.13
2023-01-01T06:29:44.996Z,14.16
2023-01-01T06:30:45.136Z,14.19
2023-01-01T06:31:45.060Z,14.19
2023-01-01T06:32:44.988Z,14.15
2023-01-01T06:33:45.116Z,14.15
2023-01-01T06:34:44.953Z,14.15
2023-01-01T06:35:44.949Z,14.16
2023-01-01T06:36:44.940Z,14.18
2023-01-01T06:37:44.943Z,14.16
2023-01-01T06:38:44.906Z,14.13
2023-01-01T06:39:44.948Z,14.12
2023-01-01T06:40:44.900Z,14.12
2023-01-01T06:41:44.893Z,14.16
2023-01-01T06:42:44.897Z,14.21
2023-01-01T06:43:44.870Z,14.22
2023-01-01T06:44:44.906Z,14.21
2023-01-01T06:45:44.930Z,14.26
2023-01-01T06:46:44.943Z,14.30
2023-01-01T06:47:44.846Z,14.30
2023-01-01T06:48:44.813Z,14.28
2023-01-01T06:49:44.831Z,14.26
2023-01-01T06:50:44.816Z,14.27
2023-01-01T06:51:44.805Z,14.31
2023-01-01T06:52:44.910Z,14.28
2023-01-01T06:53:44.790Z,14.27
2023-01-01T06:54:44.851Z,14.26
2023-01-01T06:55:44.757Z,14.28
2023-01-01T06:56:44.749Z,14.27
2023-01-01T06:57:44.715Z,14.26
2023-01-01T06:58:44.715Z,14.23
2023-01-01T06:59:44.711Z,14.23
2023-01-01T07:00:44.689Z,14.26
2023-01-01T07:01:45.188Z,14.23
2023-01-01T07:02:44.776Z,14.23
2023-01-01T07:03:44.740Z,14.23
2023-01-01T07:04:44.668Z,14.18
2023-01-01T07:05:44.738Z,14.16
2023-01-01T07:06:44.657Z,14.18
2023-01-01T07:07:44.649Z,14.16
2023-01-01T07:08:44.602Z,14.16
2023-01-01T07:09:44.586Z,14.18
2023-01-01T07:10:44.598Z,14.21
2023-01-01T07:11:44.587Z,14.27
2023-01-01T07:12:44.548Z,14.26
2023-01-01T07:13:44.584Z,14.23
2023-01-01T07:14:44.559Z,14.22
2023-01-01T07:15:44.587Z,14.22
2023-01-01T07:16:44.491Z,14.19
2023-01-01T07:17:44.779Z,14.22
2023-01-01T07:18:44.520Z,14.23
2023-01-01T07:19:44.501Z,14.27
2023-01-01T07:20:44.457Z,14.26
2023-01-01T07:21:44.483Z,14.21
2023-01-01T07:22:44.430Z,14.22
2023-01-01T07:23:44.515Z,14.19
2023-01-01T07:24:44.448Z,14.16
2023-01-01T07:25:44.440Z,14.15
2023-01-01T07:26:44.391Z,14.09
2023-01-01T07:27:44.367Z,14.04
2023-01-01T07:28:44.383Z,14.04
2023-01-01T07:29:44.314Z,14.08
2023-01-01T07:30:44.415Z,14.03
2023-01-01T07:31:44.367Z,14.00
2023-01-01T07:32:44.299Z,13.96
2023-01-01T07:33:44.291Z,13.93
2023-01-01T07:34:50.287Z,13.91
2023-01-01T07:35:44.304Z,13.93
2023-01-01T07:36:44.274Z,13.91
2023-01-01T07:37:44.235Z,13.91
2023-01-01T07:38:44.404Z,13.85
2023-01-01T07:39:44.338Z,13.80
2023-01-01T07:40:44.263Z,13.76
2023-01-01T07:41:44.439Z,13.72
2023-01-01T07:42:44.473Z,13.72
2023-01-01T07:43:44.521Z,13.67
2023-01-01T07:44:44.553Z,13.64
2023-01-01T07:45:44.377Z,13.60
2023-01-01T07:46:44.293Z,13.55
2023-01-01T07:47:44.172Z,13.51
2023-01-01T07:48:44.167Z,13.46
2023-01-01T07:49:44.263Z,13.42
2023-01-01T07:50:44.206Z,13.38
2023-01-01T07:51:44.206Z,13.32
2023-01-01T07:52:44.083Z,13.29
2023-01-01T07:53:44.127Z,13.21
2023-01-01T07:54:44.172Z,13.09
2023-01-01T07:55:44.131Z,13.02
2023-01-01T07:56:44.239Z,12.95
2023-01-01T07:57:44.313Z,12.90
2023-01-01T07:58:44.173Z,12.84
2023-01-01T07:59:44.093Z,12.77
2023-01-01T08:00:44.086Z,12.71
2023-01-01T08:01:44.128Z,12.62
2023-01-01T08:02:44.147Z,12.51
2023-01-01T08:03:43.991Z,12.44
2023-01-01T08:04:44.047Z,12.38
2023-01-01T08:05:43.960Z,12.28
2023-01-01T08:06:43.960Z,12.22
2023-01-01T08:07:44.016Z,12.14
2023-01-01T08:08:43.951Z,12.08
2023-01-01T08:09:43.947Z,12.03
2023-01-01T08:10:43.879Z,11.99
2023-01-01T08:11:44.043Z,11.95
2023-01-01T08:12:43.905Z,11.89
2023-01-01T08:13:43.912Z,11.85
2023-01-01T08:14:43.999Z,11.82
2023-01-01T08:15:43.902Z,11.79
2023-01-01T08:16:43.902Z,11.77
2023-01-01T08:17:46.765Z,11.77
2023-01-01T08:18:43.830Z,11.77
2023-01-01T08:19:43.887Z,11.76
2023-01-01T08:20:43.782Z,11.77
2023-01-01T08:21:43.829Z,11.74
2023-01-01T08:22:43.776Z,11.71
2023-01-01T08:23:43.822Z,11.67
2023-01-01T08:24:43.760Z,11.64
2023-01-01T08:25:43.780Z,11.59
2023-01-01T08:26:43.725Z,11.58
2023-01-01T08:27:43.717Z,11.54
2023-01-01T08:28:43.713Z,11.52
2023-01-01T08:29:43.701Z,11.48
2023-01-01T08:30:44.470Z,11.45
2023-01-01T08:31:43.708Z,11.40
2023-01-01T08:32:43.657Z,11.38
2023-01-01T08:33:43.695Z,11.34
2023-01-01T08:34:43.631Z,11.31
2023-01-01T08:35:45.584Z,11.30
2023-01-01T08:36:43.604Z,11.27
2023-01-01T08:37:43.816Z,11.27
2023-01-01T08:38:43.638Z,11.30
2023-01-01T08:39:43.612Z,11.31
2023-01-01T08:40:43.568Z,11.31
2023-01-01T08:41:43.572Z,11.34
2023-01-01T08:42:43.552Z,11.30
2023-01-01T08:43:43.572Z,11.28
2023-01-01T08:44:43.555Z,11.28
2023-01-01T08:45:43.534Z,11.27
2023-01-01T08:46:43.605Z,11.28
2023-01-01T08:47:43.507Z,11.23
2023-01-01T08:48:43.494Z,11.25
2023-01-01T08:49:43.470Z,11.27
2023-01-01T08:50:43.473Z,11.27
2023-01-01T08:51:43.463Z,11.25
2023-01-01T08:52:43.445Z,11.22
2023-01-01T08:53:50.377Z,11.23
2023-01-01T08:54:43.435Z,11.20
2023-01-01T08:55:43.436Z,11.20
2023-01-01T08:56:43.400Z,11.18
2023-01-01T08:57:43.390Z,11.20
2023-01-01T08:58:43.388Z,11.22
2023-01-01T08:59:43.406Z,11.22
2023-01-01T09:00:43.384Z,11.20
2023-01-01T09:01:43.562Z,11.20
2023-01-01T09:02:43.452Z,11.19
2023-01-01T09:03:43.384Z,11.19
2023-01-01T09:04:43.312Z,11.20
2023-01-01T09:05:43.322Z,11.23
2023-01-01T09:06:43.317Z,11.22
2023-01-01T09:07:43.290Z,11.22
2023-01-01T09:08:43.299Z,11.20
2023-01-01T09:09:43.268Z,11.19
2023-01-01T09:10:43.243Z,11.19
2023-01-01T09:11:43.245Z,11.16
2023-01-01T09:12:43.241Z,11.13
2023-01-01T09:13:43.279Z,11.12
2023-01-01T09:14:43.314Z,11.11
2023-01-01T09:15:43.221Z,11.11
2023-01-01T09:16:44.358Z,11.11
2023-01-01T09:17:43.203Z,11.11
2023-01-01T09:18:43.190Z,11.08
2023-01-01T09:19:43.173Z,11.04
2023-01-01T09:20:43.153Z,11.03
2023-01-01T09:21:43.132Z,11.01
2023-01-01T09:22:43.119Z,10.98
2023-01-01T09:23:43.143Z,10.98
2023-01-01T09:24:43.123Z,10.98
2023-01-01T09:25:43.147Z,10.95
2023-01-01T09:26:43.067Z,10.94
2023-01-01T09:27:43.077Z,10.94
2023-01-01T09:28:43.077Z,10.95
2023-01-01T09:29:43.176Z,10.94
2023-01-01T09:30:43.055Z,10.94
2023-01-01T09:31:43.100Z,10.93
2023-01-01T09:32:43.019Z,10.94
2023-01-01T09:33:43.050Z,10.95
2023-01-01T09:34:47.294Z,10.94
2023-01-01T09:35:43.004Z,10.94
2023-01-01T09:36:42.974Z,10.94
2023-01-01T09:37:42.988Z,10.94
2023-01-01T09:38:42.970Z,10.94
2023-01-01T09:39:42.984Z,10.90
2023-01-01T09:40:47.627Z,10.87
2023-01-01T09:41:42.945Z,10.87
2023-01-01T09:42:42.961Z,10.85
2023-01-01T09:43:42.968Z,10.83
2023-01-01T09:44:42.909Z,10.83
2023-01-01T09:45:43.095Z,10.82
2023-01-01T09:46:42.905Z,10.80
2023-01-01T09:47:42.886Z,10.80
2023-01-01T09:48:42.896Z,10.78
2023-01-01T09:49:42.868Z,10.78
2023-01-01T09:50:42.912Z,10.78
2023-01-01T09:51:49.950Z,10.75
2023-01-01T09:52:42.833Z,10.78
2023-01-01T09:53:42.819Z,10.76
2023-01-01T09:54:42.888Z,10.76
2023-01-01T09:55:42.796Z,10.76
2023-01-01T09:56:42.774Z,10.75
2023-01-01T09:57:42.784Z,10.76
2023-01-01T09:58:42.845Z,10.75
2023-01-01T09:59:42.789Z,10.76
2023-01-01T10:00:42.759Z,10.78
2023-01-01T10:01:42.880Z,10.79
2023-01-01T10:02:45.597Z,10.79
2023-01-01T10:03:42.771Z,10.79
2023-01-01T10:04:42.691Z,10.80
2023-01-01T10:05:42.993Z,10.80
2023-01-01T10:06:42.816Z,10.79
2023-01-01T10:07:42.813Z,10.79
2023-01-01T10:08:42.674Z,10.78
2023-01-01T10:09:42.652Z,10.78
2023-01-01T10:10:42.623Z,10.78
2023-01-01T10:11:42.651Z,10.78
2023-01-01T10:12:42.614Z,10.75
2023-01-01T10:13:42.636Z,10.75
2023-01-01T10:14:42.610Z,10.75
2023-01-01T10:15:42.593Z,10.75
2023-01-01T10:16:42.613Z,10.75
2023-01-01T10:17:42.582Z,10.73
2023-01-01T10:18:42.576Z,10.72
2023-01-01T10:19:42.559Z,10.73
2023-01-01T10:20:42.566Z,10.73
2023-01-01T10:21:47.008Z,10.78
2023-01-01T10:22:42.549Z,10.75
2023-01-01T10:23:42.887Z,10.75
2023-01-01T10:24:42.509Z,10.75
2023-01-01T10:25:42.612Z,10.75
2023-01-01T10:26:42.466Z,10.72
2023-01-01T10:27:42.507Z,10.73
2023-01-01T10:28:42.469Z,10.72
2023-01-01T10:29:42.448Z,10.72
2023-01-01T10:30:42.470Z,10.73
2023-01-01T10:31:42.599Z,10.75
2023-01-01T10:32:42.427Z,10.76
2023-01-01T10:33:42.566Z,10.75
2023-01-01T10:34:42.426Z,10.75
2023-01-01T10:35:42.424Z,10.75
2023-01-01T10:36:42.373Z,10.73
2023-01-01T10:37:42.366Z,10.73
2023-01-01T10:38:42.370Z,10.75
2023-01-01T10:39:42.353Z,10.73
2023-01-01T10:40:42.331Z,10.73
2023-01-01T10:41:42.347Z,10.75
2023-01-01T10:42:42.302Z,10.73
2023-01-01T10:43:42.343Z,10.75
2023-01-01T10:44:42.297Z,10.75
2023-01-01T10:45:42.300Z,10.73
2023-01-01T10:46:42.292Z,10.76
2023-01-01T10:47:42.259Z,10.72
2023-01-01T10:48:42.281Z,10.75
2023-01-01T10:49:42.248Z,10.75
2023-01-01T10:50:42.221Z,10.75
2023-01-01T10:51:42.241Z,10.73
2023-01-01T10:52:42.218Z,10.75
2023-01-01T10:53:42.202Z,10.78
2023-01-01T10:54:42.205Z,10.78
2023-01-01T10:55:42.185Z,10.79
2023-01-01T10:56:42.169Z,10.79
2023-01-01T10:57:42.171Z,10.82
2023-01-01T10:58:42.161Z,10.80
2023-01-01T10:59:43.103Z,10.82
2023-01-01T11:00:42.132Z,10.85
2023-01-01T11:01:42.309Z,10.85
2023-01-01T11:02:42.315Z,10.85
2023-01-01T11:03:42.103Z,10.87
2023-01-01T11:04:42.102Z,10.90
2023-01-01T11:05:42.086Z,10.90
2023-01-01T11:06:42.071Z,10.86
2023-01-01T11:07:42.066Z,10.86
2023-01-01T11:08:42.069Z,10.83
2023-01-01T11:09:52.184Z,10.85
2023-01-01T11:10:42.063Z,10.85
2023-01-01T11:11:42.028Z,10.86
2023-01-01T11:13:42.008Z,10.91
2023-01-01T11:14:41.995Z,10.98
2023-01-01T11:15:41.997Z,11.00
2023-01-01T11:16:42.046Z,11.05
2023-01-01T11:17:41.976Z,11.11
2023-01-01T11:18:41.951Z,11.09
2023-01-01T11:19:45.672Z,11.18
2023-01-01T11:20:41.968Z,11.22
2023-01-01T11:21:41.937Z,11.28
2023-01-01T11:22:41.946Z,11.28
2023-01-01T11:23:41.908Z,11.33
2023-01-01T11:24:41.919Z,11.34
2023-01-01T11:25:41.867Z,11.36
2023-01-01T11:26:41.879Z,11.34
2023-01-01T11:27:41.847Z,11.37
2023-01-01T11:28:41.859Z,11.41
2023-01-01T11:29:41.826Z,11.40
2023-01-01T11:30:41.879Z,11.43
2023-01-01T11:31:41.969Z,11.41
2023-01-01T11:32:41.819Z,11.45
2023-01-01T11:33:41.782Z,11.43
2023-01-01T11:34:41.777Z,11.45
2023-01-01T11:35:41.762Z,11.51
2023-01-01T11:36:41.775Z,11.59
2023-01-01T11:37:41.767Z,11.67
2023-01-01T11:38:41.741Z,11.73
2023-01-01T11:39:41.714Z,11.77
2023-01-01T11:40:41.768Z,11.80
2023-01-01T11:41:41.716Z,11.85
2023-01-01T11:42:41.725Z,11.85
2023-01-01T11:43:41.709Z,11.91
2023-01-01T11:44:41.681Z,11.97
2023-01-01T11:45:41.657Z,11.97
2023-01-01T11:46:41.661Z,12.00
2023-01-01T11:47:41.633Z,12.04
2023-01-01T11:48:41.718Z,12.11
2023-01-01T11:49:41.637Z,12.14
2023-01-01T11:50:41.624Z,12.18
2023-01-01T11:51:41.618Z,12.21
2023-01-01T11:52:41.618Z,12.25
2023-01-01T11:53:41.566Z,12.29
2023-01-01T11:54:41.562Z,12.41
2023-01-01T11:55:41.597Z,12.50
2023-01-01T11:56:48.057Z,12.54
2023-01-01T11:57:41.548Z,12.58
2023-01-01T11:58:41.544Z,12.62
2023-01-01T11:59:41.525Z,12.68
2023-01-01T12:00:41.509Z,12.73
2023-01-01T12:01:41.499Z,12.77
2023-01-01T12:02:41.540Z,12.83
2023-01-01T12:03:41.541Z,12.90
2023-01-01T12:04:41.481Z,12.96
2023-01-01T12:05:41.448Z,13.06
2023-01-01T12:06:41.444Z,13.16
2023-01-01T12:07:41.482Z,13.27
2023-01-01T12:08:41.431Z,13.35
2023-01-01T12:09:41.403Z,13.39
2023-01-01T12:10:41.416Z,13.40
2023-01-01T12:11:41.410Z,13.38
2023-01-01T12:12:41.389Z,13.32
2023-01-01T12:13:41.379Z,13.29
2023-01-01T12:14:41.381Z,13.21
2023-01-01T12:15:41.519Z,13.21
2023-01-01T12:16:41.451Z,13.27
2023-01-01T12:17:41.325Z,13.38
2023-01-01T12:18:41.322Z,13.58
2023-01-01T12:19:41.299Z,13.64
2023-01-01T12:20:41.300Z,13.55
2023-01-01T12:21:41.271Z,13.55
2023-01-01T12:22:41.325Z,13.53
2023-01-01T12:23:41.271Z,13.49
2023-01-01T12:24:41.242Z,13.46
2023-01-01T12:25:41.302Z,13.47
2023-01-01T12:26:41.248Z,13.49
2023-01-01T12:27:41.227Z,13.43
2023-01-01T12:28:41.222Z,13.45
2023-01-01T12:29:41.206Z,13.45
2023-01-01T12:30:41.263Z,13.43
2023-01-01T12:31:41.228Z,13.46
2023-01-01T12:32:41.194Z,13.45
2023-01-01T12:33:41.160Z,13.46
2023-01-01T12:34:41.158Z,13.42
2023-01-01T12:35:41.140Z,13.39
2023-01-01T12:36:41.149Z,13.35
2023-01-01T12:37:41.155Z,13.36
2023-01-01T12:38:41.145Z,13.35
2023-01-01T12:39:41.121Z,13.30
2023-01-01T12:40:41.073Z,13.35
2023-01-01T12:41:41.069Z,13.39
2023-01-01T12:42:41.078Z,13.45
2023-01-01T12:43:41.091Z,13.53
2023-01-01T12:44:41.065Z,13.61
2023-01-01T12:45:41.037Z,13.63
2023-01-01T12:46:41.089Z,13.65
2023-01-01T12:47:41.024Z,13.71
2023-01-01T12:48:41.011Z,13.64
2023-01-01T12:49:40.992Z,13.68
2023-01-01T12:50:41.010Z,13.64
2023-01-01T12:51:40.985Z,13.61
2023-01-01T12:52:40.968Z,13.61
2023-01-01T12:53:40.989Z,13.60
2023-01-01T12:54:40.958Z,13.58